Idledale, CO (80453)

12:25 PM MDT on August 21, 2014 (GMT -0600)
Matterhorn | Change Station
CLOSE
Current Station
Personal Weather Station
Location: Indian Hills, CO
Elevation: 7424 ft
Nearby Weather Stations

Elev 7424 ft 39.64 °N, 105.28 °W | Updated 1 minute ago

Mostly Cloudy
Mostly Cloudy
72.8 °F
Feels Like 77 °F
N
4.0
Wind Variable Wind from NNE
Gusts 12.0 mph

Today
High -- | Low -- °F
--% Chance of Precip.
Yesterday
High -- | Low -- °F
Precip. -- in
6:18 AM 7:48 PM
Waning Crescent, 13% visible
Pressure 30.13 in
Visibility 50.0 miles
Clouds Few 6000 ft
Mostly Cloudy 12000 ft
Mostly Cloudy 20000 ft
Heat Index 77 °F
Dew Point 44 °F
Humidity 35%
Rainfall 0.00 in
Snow Depth Not available.
UV 5 out of 12
Pollen 9.70 out of 12
Ozone Good
PM2.5 Good
Flu Activity Not available.
METAR KBJC 211747Z VRB04KT 50SM FEW060 BKN120 BKN200 27/08 A3013

More Conditions Fewer Conditions

Pressure 30.13 in
Visibility 50.0 miles
Clouds Few 6000 ft
Mostly Cloudy 12000 ft
Mostly Cloudy 20000 ft
Heat Index 77 °F
Dew Point 44 °F
Humidity 35%
Rainfall 0.00 in
Snow Depth Not available.
UV 5 out of 12
Pollen 9.70 out of 12
Ozone Good
PM2.5 Good
Flu Activity Not available.
METAR KBJC 211747Z VRB04KT 50SM FEW060 BKN120 BKN200 27/08 A3013

More Conditions Fewer Conditions

10-Day Weather Forecast

Almanac

Astronomy

Aug. 21, 2014 Rise Set
Actual Time 6:18 AM MDT 7:48 PM MDT
Civil Twilight 5:50 AM MDT 8:16 PM MDT
Nautical Twilight 5:16 AM MDT 8:50 PM MDT
Astronomical Twilight 4:40 AM MDT 9:26 PM MDT
Moon 2:51 AM MDT 5:18 PM MDT
Length of Visible Light 14h 26m
Length of Day
13h 29m
Tomorrow will be 2m 22s shorter.
Waning Crescent, 13% of the Moon is Illuminated
Today
Waning Crescent
Aug 25
New
Sep 2
First Quarter
Sep 8
Full
Sep 15
Last Quarter

Today's Extremes

State Highs State Lows

Community

WunderPhotos

Upload Photos

1,745,992 photos uploaded!

WunderBlogs® & News

Nearby

Air Quality

  Air Quality AQ Index Pollutant
Yesterday Good
OZONE
Yesterday Good
PM10
Current Good
OZONE
Current Good
PM2.5
Thursday Moderate
OZONE
Thursday Good
PM2.5

Snow Depth

Station Depth Elevation
Loveland Basin 0 in 11400 ft
Wild Basin 0 in 9560 ft
Summit Ranch 0 in 9400 ft
Fremont Pass 177 in 11400 ft
Willow Park 6 in 10700 ft

Earthquake Activity

City Distance Mag. Time & Date
No recent earthquake activity has been reported nearby.
Minimum magnitude displayed is 2.5.

Coastal Water Temperatures

Place Temperature
No Stations Reporting

Nearby Weather Stations